sensor_id;sensor_type;location;lat;lon;timestamp;P1;durP1;ratioP1;P2;durP2;ratioP2
21334;SDS011;69435;52.670;13.544;2024-01-30T00:00:58;16.03;;;7.37;;
21334;SDS011;69435;52.670;13.544;2024-01-30T00:03:44;7.73;;;6.03;;
21334;SDS011;69435;52.670;13.544;2024-01-30T00:06:30;8.63;;;6.00;;
21334;SDS011;69435;52.670;13.544;2024-01-30T00:09:16;8.03;;;6.30;;
21334;SDS011;69435;52.670;13.544;2024-01-30T00:12:02;10.23;;;6.90;;
21334;SDS011;69435;52.670;13.544;2024-01-30T00:14:48;8.43;;;6.73;;
21334;SDS011;69435;52.670;13.544;2024-01-30T00:17:35;11.17;;;6.50;;
21334;SDS011;69435;52.670;13.544;2024-01-30T00:20:22;10.03;;;6.57;;
21334;SDS011;69435;52.670;13.544;2024-01-30T00:23:08;10.80;;;6.27;;
21334;SDS011;69435;52.670;13.544;2024-01-30T00:25:54;7.87;;;6.20;;
21334;SDS011;69435;52.670;13.544;2024-01-30T00:28:41;12.10;;;6.00;;
21334;SDS011;69435;52.670;13.544;2024-01-30T00:31:28;10.83;;;6.53;;
21334;SDS011;69435;52.670;13.544;2024-01-30T00:34:14;8.70;;;6.27;;
21334;SDS011;69435;52.670;13.544;2024-01-30T00:37:00;12.27;;;6.37;;
21334;SDS011;69435;52.670;13.544;2024-01-30T00:39:46;9.57;;;6.10;;
21334;SDS011;69435;52.670;13.544;2024-01-30T00:42:32;10.83;;;6.13;;
21334;SDS011;69435;52.670;13.544;2024-01-30T00:45:18;10.27;;;6.10;;
21334;SDS011;69435;52.670;13.544;2024-01-30T00:48:04;9.63;;;6.37;;
21334;SDS011;69435;52.670;13.544;2024-01-30T00:50:51;10.80;;;6.13;;
21334;SDS011;69435;52.670;13.544;2024-01-30T00:53:37;9.90;;;5.77;;
21334;SDS011;69435;52.670;13.544;2024-01-30T00:56:23;9.43;;;5.70;;
21334;SDS011;69435;52.670;13.544;2024-01-30T00:59:09;9.30;;;6.30;;
21334;SDS011;69435;52.670;13.544;2024-01-30T01:01:57;10.03;;;5.73;;
21334;SDS011;69435;52.670;13.544;2024-01-30T01:04:43;6.90;;;5.30;;
21334;SDS011;69435;52.670;13.544;2024-01-30T01:07:29;11.67;;;6.33;;
21334;SDS011;69435;52.670;13.544;2024-01-30T01:10:18;11.63;;;5.97;;
21334;SDS011;69435;52.670;13.544;2024-01-30T01:13:05;9.40;;;6.17;;
21334;SDS011;69435;52.670;13.544;2024-01-30T01:15:51;7.37;;;5.67;;
21334;SDS011;69435;52.670;13.544;2024-01-30T01:18:37;6.90;;;5.73;;
21334;SDS011;69435;52.670;13.544;2024-01-30T01:21:23;12.20;;;5.83;;
21334;SDS011;69435;52.670;13.544;2024-01-30T01:24:09;6.33;;;5.73;;
21334;SDS011;69435;52.670;13.544;2024-01-30T01:26:55;7.93;;;5.90;;
21334;SDS011;69435;52.670;13.544;2024-01-30T01:29:42;10.17;;;5.97;;
21334;SDS011;69435;52.670;13.544;2024-01-30T01:32:28;7.73;;;5.67;;
21334;SDS011;69435;52.670;13.544;2024-01-30T01:35:14;8.37;;;5.37;;
21334;SDS011;69435;52.670;13.544;2024-01-30T01:38:00;8.00;;;5.53;;
21334;SDS011;69435;52.670;13.544;2024-01-30T01:40:47;7.07;;;5.57;;
21334;SDS011;69435;52.670;13.544;2024-01-30T01:43:33;8.77;;;5.33;;
21334;SDS011;69435;52.670;13.544;2024-01-30T01:46:19;7.47;;;5.73;;
21334;SDS011;69435;52.670;13.544;2024-01-30T01:49:05;6.90;;;5.00;;
21334;SDS011;69435;52.670;13.544;2024-01-30T01:51:54;7.37;;;6.00;;
21334;SDS011;69435;52.670;13.544;2024-01-30T01:54:45;8.27;;;5.10;;
21334;SDS011;69435;52.670;13.544;2024-01-30T01:57:31;16.93;;;5.97;;
21334;SDS011;69435;52.670;13.544;2024-01-30T02:00:19;9.20;;;5.10;;
21334;SDS011;69435;52.670;13.544;2024-01-30T02:03:06;6.60;;;4.83;;
21334;SDS011;69435;52.670;13.544;2024-01-30T02:05:55;10.40;;;5.87;;
21334;SDS011;69435;52.670;13.544;2024-01-30T02:08:42;10.07;;;4.77;;
21334;SDS011;69435;52.670;13.544;2024-01-30T02:11:28;7.67;;;5.50;;
21334;SDS011;69435;52.670;13.544;2024-01-30T02:14:14;7.03;;;5.13;;
21334;SDS011;69435;52.670;13.544;2024-01-30T02:17:00;7.87;;;5.73;;
21334;SDS011;69435;52.670;13.544;2024-01-30T02:19:46;8.43;;;5.47;;
21334;SDS011;69435;52.670;13.544;2024-01-30T02:22:33;11.50;;;6.27;;
21334;SDS011;69435;52.670;13.544;2024-01-30T02:25:20;8.03;;;5.57;;
21334;SDS011;69435;52.670;13.544;2024-01-30T02:28:21;9.47;;;5.47;;
21334;SDS011;69435;52.670;13.544;2024-01-30T02:31:07;7.67;;;5.73;;
21334;SDS011;69435;52.670;13.544;2024-01-30T02:33:53;8.37;;;5.73;;
21334;SDS011;69435;52.670;13.544;2024-01-30T02:36:42;13.37;;;6.27;;
21334;SDS011;69435;52.670;13.544;2024-01-30T02:39:29;7.93;;;5.33;;
21334;SDS011;69435;52.670;13.544;2024-01-30T02:42:15;7.57;;;5.40;;
21334;SDS011;69435;52.670;13.544;2024-01-30T02:45:01;12.13;;;5.67;;
21334;SDS011;69435;52.670;13.544;2024-01-30T02:47:47;9.70;;;5.73;;
21334;SDS011;69435;52.670;13.544;2024-01-30T02:50:33;11.63;;;6.00;;
21334;SDS011;69435;52.670;13.544;2024-01-30T02:53:19;10.23;;;5.70;;
21334;SDS011;69435;52.670;13.544;2024-01-30T02:56:05;11.57;;;5.90;;
21334;SDS011;69435;52.670;13.544;2024-01-30T02:58:55;10.03;;;6.10;;
21334;SDS011;69435;52.670;13.544;2024-01-30T03:01:43;11.97;;;6.63;;
21334;SDS011;69435;52.670;13.544;2024-01-30T03:04:30;8.43;;;6.23;;
21334;SDS011;69435;52.670;13.544;2024-01-30T03:07:16;12.30;;;5.57;;
21334;SDS011;69435;52.670;13.544;2024-01-30T03:10:03;10.87;;;5.80;;
21334;SDS011;69435;52.670;13.544;2024-01-30T03:12:51;14.20;;;6.17;;
21334;SDS011;69435;52.670;13.544;2024-01-30T03:15:37;9.20;;;5.67;;
21334;SDS011;69435;52.670;13.544;2024-01-30T03:18:23;10.73;;;5.80;;
21334;SDS011;69435;52.670;13.544;2024-01-30T03:21:09;7.40;;;5.87;;
21334;SDS011;69435;52.670;13.544;2024-01-30T03:23:55;10.60;;;5.33;;
21334;SDS011;69435;52.670;13.544;2024-01-30T03:26:41;8.10;;;5.40;;
21334;SDS011;69435;52.670;13.544;2024-01-30T03:29:27;6.80;;;5.30;;
21334;SDS011;69435;52.670;13.544;2024-01-30T03:32:13;9.90;;;6.10;;
21334;SDS011;69435;52.670;13.544;2024-01-30T03:34:59;11.03;;;6.10;;
21334;SDS011;69435;52.670;13.544;2024-01-30T03:37:45;9.13;;;5.53;;
21334;SDS011;69435;52.670;13.544;2024-01-30T03:40:31;9.87;;;5.17;;
21334;SDS011;69435;52.670;13.544;2024-01-30T03:43:17;8.43;;;5.70;;
21334;SDS011;69435;52.670;13.544;2024-01-30T03:46:03;8.20;;;5.40;;
21334;SDS011;69435;52.670;13.544;2024-01-30T03:48:49;9.90;;;5.33;;
21334;SDS011;69435;52.670;13.544;2024-01-30T03:51:35;7.97;;;5.83;;
21334;SDS011;69435;52.670;13.544;2024-01-30T03:54:21;9.67;;;5.07;;
21334;SDS011;69435;52.670;13.544;2024-01-30T03:57:07;6.20;;;5.20;;
21334;SDS011;69435;52.670;13.544;2024-01-30T03:59:53;6.33;;;5.33;;
21334;SDS011;69435;52.670;13.544;2024-01-30T04:02:39;10.87;;;5.37;;
21334;SDS011;69435;52.670;13.544;2024-01-30T04:05:25;9.77;;;6.17;;
21334;SDS011;69435;52.670;13.544;2024-01-30T04:08:11;6.70;;;5.40;;
21334;SDS011;69435;52.670;13.544;2024-01-30T04:10:57;9.13;;;5.90;;
21334;SDS011;69435;52.670;13.544;2024-01-30T04:13:43;8.50;;;5.80;;
21334;SDS011;69435;52.670;13.544;2024-01-30T04:16:32;7.90;;;5.77;;
21334;SDS011;69435;52.670;13.544;2024-01-30T04:19:18;6.57;;;5.43;;
21334;SDS011;69435;52.670;13.544;2024-01-30T04:22:04;6.97;;;6.07;;
21334;SDS011;69435;52.670;13.544;2024-01-30T04:24:50;6.57;;;5.30;;
21334;SDS011;69435;52.670;13.544;2024-01-30T04:27:37;9.97;;;5.97;;
21334;SDS011;69435;52.670;13.544;2024-01-30T04:30:23;10.20;;;6.03;;
21334;SDS011;69435;52.670;13.544;2024-01-30T04:33:09;7.83;;;5.77;;
21334;SDS011;69435;52.670;13.544;2024-01-30T04:35:56;7.60;;;5.73;;
21334;SDS011;69435;52.670;13.544;2024-01-30T04:38:42;6.70;;;5.50;;
21334;SDS011;69435;52.670;13.544;2024-01-30T04:41:28;9.57;;;6.17;;
21334;SDS011;69435;52.670;13.544;2024-01-30T04:44:16;10.63;;;6.33;;
21334;SDS011;69435;52.670;13.544;2024-01-30T04:47:02;9.67;;;6.10;;
21334;SDS011;69435;52.670;13.544;2024-01-30T04:49:51;9.63;;;6.70;;
21334;SDS011;69435;52.670;13.544;2024-01-30T04:52:37;9.60;;;5.23;;
21334;SDS011;69435;52.670;13.544;2024-01-30T04:55:23;10.33;;;5.77;;
21334;SDS011;69435;52.670;13.544;2024-01-30T04:58:09;9.67;;;5.77;;
21334;SDS011;69435;52.670;13.544;2024-01-30T05:00:55;10.60;;;6.33;;
21334;SDS011;69435;52.670;13.544;2024-01-30T05:03:41;9.60;;;6.27;;
21334;SDS011;69435;52.670;13.544;2024-01-30T05:06:27;11.53;;;5.77;;
21334;SDS011;69435;52.670;13.544;2024-01-30T05:09:13;17.77;;;6.50;;
21334;SDS011;69435;52.670;13.544;2024-01-30T05:11:59;6.63;;;5.40;;
21334;SDS011;69435;52.670;13.544;2024-01-30T05:14:45;12.87;;;6.33;;
21334;SDS011;69435;52.670;13.544;2024-01-30T05:17:31;8.00;;;6.20;;
21334;SDS011;69435;52.670;13.544;2024-01-30T05:20:17;9.63;;;5.93;;
21334;SDS011;69435;52.670;13.544;2024-01-30T05:23:03;14.17;;;6.43;;
21334;SDS011;69435;52.670;13.544;2024-01-30T05:25:49;9.20;;;6.53;;
21334;SDS011;69435;52.670;13.544;2024-01-30T05:28:35;8.80;;;6.20;;
21334;SDS011;69435;52.670;13.544;2024-01-30T05:31:21;8.80;;;6.17;;
21334;SDS011;69435;52.670;13.544;2024-01-30T05:34:07;8.43;;;6.07;;
21334;SDS011;69435;52.670;13.544;2024-01-30T05:36:54;10.20;;;6.30;;
21334;SDS011;69435;52.670;13.544;2024-01-30T05:39:40;10.00;;;6.70;;
21334;SDS011;69435;52.670;13.544;2024-01-30T05:42:26;12.33;;;7.07;;
21334;SDS011;69435;52.670;13.544;2024-01-30T05:45:12;10.00;;;6.87;;
21334;SDS011;69435;52.670;13.544;2024-01-30T05:47:58;11.90;;;7.30;;
21334;SDS011;69435;52.670;13.544;2024-01-30T05:50:44;13.27;;;6.70;;
21334;SDS011;69435;52.670;13.544;2024-01-30T05:53:30;10.90;;;6.70;;
21334;SDS011;69435;52.670;13.544;2024-01-30T05:56:16;10.93;;;6.97;;
21334;SDS011;69435;52.670;13.544;2024-01-30T05:59:02;10.63;;;6.77;;
21334;SDS011;69435;52.670;13.544;2024-01-30T06:01:48;12.00;;;6.83;;
21334;SDS011;69435;52.670;13.544;2024-01-30T06:04:34;9.40;;;7.03;;
21334;SDS011;69435;52.670;13.544;2024-01-30T06:07:20;13.97;;;7.53;;
21334;SDS011;69435;52.670;13.544;2024-01-30T06:10:07;12.63;;;7.17;;
21334;SDS011;69435;52.670;13.544;2024-01-30T06:12:54;13.17;;;6.70;;
21334;SDS011;69435;52.670;13.544;2024-01-30T06:15:40;9.60;;;7.30;;
21334;SDS011;69435;52.670;13.544;2024-01-30T06:18:26;12.20;;;7.47;;
21334;SDS011;69435;52.670;13.544;2024-01-30T06:21:12;12.70;;;7.20;;
21334;SDS011;69435;52.670;13.544;2024-01-30T06:23:58;15.97;;;7.57;;
21334;SDS011;69435;52.670;13.544;2024-01-30T06:26:44;9.50;;;6.93;;
21334;SDS011;69435;52.670;13.544;2024-01-30T06:29:30;11.07;;;6.77;;
21334;SDS011;69435;52.670;13.544;2024-01-30T06:32:16;11.30;;;7.47;;
21334;SDS011;69435;52.670;13.544;2024-01-30T06:35:02;13.70;;;7.20;;
21334;SDS011;69435;52.670;13.544;2024-01-30T06:37:49;10.60;;;7.97;;
21334;SDS011;69435;52.670;13.544;2024-01-30T06:40:35;15.33;;;8.87;;
21334;SDS011;69435;52.670;13.544;2024-01-30T06:43:22;12.57;;;6.97;;
21334;SDS011;69435;52.670;13.544;2024-01-30T06:46:08;14.23;;;9.27;;
21334;SDS011;69435;52.670;13.544;2024-01-30T06:48:54;11.53;;;8.20;;
21334;SDS011;69435;52.670;13.544;2024-01-30T06:51:40;17.40;;;7.83;;
21334;SDS011;69435;52.670;13.544;2024-01-30T06:54:26;11.90;;;7.40;;
21334;SDS011;69435;52.670;13.544;2024-01-30T06:57:12;11.93;;;7.53;;
21334;SDS011;69435;52.670;13.544;2024-01-30T06:59:59;14.17;;;8.07;;
21334;SDS011;69435;52.670;13.544;2024-01-30T07:02:45;15.17;;;7.37;;
21334;SDS011;69435;52.670;13.544;2024-01-30T07:05:31;13.17;;;7.73;;
21334;SDS011;69435;52.670;13.544;2024-01-30T07:08:17;10.70;;;7.43;;
21334;SDS011;69435;52.670;13.544;2024-01-30T07:11:04;15.23;;;8.50;;
21334;SDS011;69435;52.670;13.544;2024-01-30T07:13:51;10.10;;;7.40;;
21334;SDS011;69435;52.670;13.544;2024-01-30T07:16:37;12.13;;;7.23;;
21334;SDS011;69435;52.670;13.544;2024-01-30T07:19:23;16.53;;;7.20;;
21334;SDS011;69435;52.670;13.544;2024-01-30T07:22:09;10.77;;;7.93;;
21334;SDS011;69435;52.670;13.544;2024-01-30T07:24:55;14.20;;;7.77;;
21334;SDS011;69435;52.670;13.544;2024-01-30T07:27:41;15.37;;;7.97;;
21334;SDS011;69435;52.670;13.544;2024-01-30T07:30:27;15.17;;;7.77;;
21334;SDS011;69435;52.670;13.544;2024-01-30T07:33:13;15.97;;;9.07;;
21334;SDS011;69435;52.670;13.544;2024-01-30T07:35:59;11.67;;;8.07;;
21334;SDS011;69435;52.670;13.544;2024-01-30T07:38:45;10.17;;;7.43;;
21334;SDS011;69435;52.670;13.544;2024-01-30T07:41:31;12.33;;;7.93;;
21334;SDS011;69435;52.670;13.544;2024-01-30T07:44:18;15.23;;;8.50;;
21334;SDS011;69435;52.670;13.544;2024-01-30T07:47:04;13.90;;;7.97;;
21334;SDS011;69435;52.670;13.544;2024-01-30T07:49:50;13.07;;;8.00;;
21334;SDS011;69435;52.670;13.544;2024-01-30T07:52:36;18.03;;;8.97;;
21334;SDS011;69435;52.670;13.544;2024-01-30T07:55:24;19.83;;;8.97;;
21334;SDS011;69435;52.670;13.544;2024-01-30T07:58:12;14.07;;;9.03;;
21334;SDS011;69435;52.670;13.544;2024-01-30T08:00:58;13.07;;;9.07;;
21334;SDS011;69435;52.670;13.544;2024-01-30T08:03:45;14.80;;;9.00;;
21334;SDS011;69435;52.670;13.544;2024-01-30T08:06:32;17.70;;;9.00;;
21334;SDS011;69435;52.670;13.544;2024-01-30T08:09:18;13.47;;;8.53;;
21334;SDS011;69435;52.670;13.544;2024-01-30T08:12:04;16.13;;;8.77;;
21334;SDS011;69435;52.670;13.544;2024-01-30T08:14:50;12.23;;;8.70;;
21334;SDS011;69435;52.670;13.544;2024-01-30T08:17:36;15.60;;;8.77;;
21334;SDS011;69435;52.670;13.544;2024-01-30T08:20:23;15.47;;;8.77;;
21334;SDS011;69435;52.670;13.544;2024-01-30T08:23:10;12.10;;;8.37;;
21334;SDS011;69435;52.670;13.544;2024-01-30T08:25:56;10.93;;;7.30;;
21334;SDS011;69435;52.670;13.544;2024-01-30T08:28:42;12.80;;;8.00;;
21334;SDS011;69435;52.670;13.544;2024-01-30T08:31:28;8.57;;;6.83;;
21334;SDS011;69435;52.670;13.544;2024-01-30T08:34:14;12.80;;;7.60;;
21334;SDS011;69435;52.670;13.544;2024-01-30T08:37:00;12.13;;;7.00;;
21334;SDS011;69435;52.670;13.544;2024-01-30T08:39:46;13.60;;;7.80;;
21334;SDS011;69435;52.670;13.544;2024-01-30T08:42:32;10.63;;;7.07;;
21334;SDS011;69435;52.670;13.544;2024-01-30T08:45:18;9.83;;;7.10;;
21334;SDS011;69435;52.670;13.544;2024-01-30T08:48:04;9.13;;;7.30;;
21334;SDS011;69435;52.670;13.544;2024-01-30T08:50:51;12.77;;;7.50;;
21334;SDS011;69435;52.670;13.544;2024-01-30T08:53:37;11.60;;;7.07;;
21334;SDS011;69435;52.670;13.544;2024-01-30T08:56:23;9.83;;;6.80;;
21334;SDS011;69435;52.670;13.544;2024-01-30T08:59:09;9.90;;;6.40;;
21334;SDS011;69435;52.670;13.544;2024-01-30T09:01:56;12.53;;;6.83;;
21334;SDS011;69435;52.670;13.544;2024-01-30T09:04:43;11.57;;;6.27;;
21334;SDS011;69435;52.670;13.544;2024-01-30T09:07:29;12.27;;;7.67;;
21334;SDS011;69435;52.670;13.544;2024-01-30T09:10:15;10.53;;;6.13;;
21334;SDS011;69435;52.670;13.544;2024-01-30T09:13:01;8.40;;;6.40;;
21334;SDS011;69435;52.670;13.544;2024-01-30T09:15:48;8.87;;;6.50;;
21334;SDS011;69435;52.670;13.544;2024-01-30T09:18:34;11.17;;;7.37;;
21334;SDS011;69435;52.670;13.544;2024-01-30T09:21:20;11.43;;;6.83;;
21334;SDS011;69435;52.670;13.544;2024-01-30T09:24:06;9.70;;;7.07;;
21334;SDS011;69435;52.670;13.544;2024-01-30T09:26:53;9.47;;;6.90;;
21334;SDS011;69435;52.670;13.544;2024-01-30T09:29:38;7.90;;;6.67;;
21334;SDS011;69435;52.670;13.544;2024-01-30T09:32:25;9.93;;;7.13;;
21334;SDS011;69435;52.670;13.544;2024-01-30T09:35:11;12.43;;;7.00;;
21334;SDS011;69435;52.670;13.544;2024-01-30T09:37:57;10.97;;;7.27;;
21334;SDS011;69435;52.670;13.544;2024-01-30T09:40:44;8.07;;;6.60;;
21334;SDS011;69435;52.670;13.544;2024-01-30T09:43:40;7.83;;;6.67;;
21334;SDS011;69435;52.670;13.544;2024-01-30T09:46:33;12.10;;;7.37;;
21334;SDS011;69435;52.670;13.544;2024-01-30T09:49:20;9.53;;;6.37;;
21334;SDS011;69435;52.670;13.544;2024-01-30T09:52:09;10.50;;;7.07;;
21334;SDS011;69435;52.670;13.544;2024-01-30T09:54:57;15.20;;;7.10;;
21334;SDS011;69435;52.670;13.544;2024-01-30T09:57:46;8.27;;;7.03;;
21334;SDS011;69435;52.670;13.544;2024-01-30T10:00:33;11.33;;;6.47;;
21334;SDS011;69435;52.670;13.544;2024-01-30T10:03:19;11.20;;;7.17;;
21334;SDS011;69435;52.670;13.544;2024-01-30T10:06:05;10.90;;;7.60;;
21334;SDS011;69435;52.670;13.544;2024-01-30T10:08:52;12.43;;;7.80;;
21334;SDS011;69435;52.670;13.544;2024-01-30T10:11:39;12.50;;;6.87;;
21334;SDS011;69435;52.670;13.544;2024-01-30T10:14:25;12.40;;;7.17;;
21334;SDS011;69435;52.670;13.544;2024-01-30T10:17:11;9.43;;;6.57;;
21334;SDS011;69435;52.670;13.544;2024-01-30T10:19:58;12.80;;;7.53;;
21334;SDS011;69435;52.670;13.544;2024-01-30T10:22:44;10.97;;;6.80;;
21334;SDS011;69435;52.670;13.544;2024-01-30T10:25:31;11.30;;;7.33;;
21334;SDS011;69435;52.670;13.544;2024-01-30T10:28:17;15.40;;;7.57;;
21334;SDS011;69435;52.670;13.544;2024-01-30T10:31:03;10.20;;;6.60;;
21334;SDS011;69435;52.670;13.544;2024-01-30T10:33:49;7.93;;;6.40;;
21334;SDS011;69435;52.670;13.544;2024-01-30T10:36:41;12.10;;;7.17;;
21334;SDS011;69435;52.670;13.544;2024-01-30T10:39:36;13.40;;;7.23;;
21334;SDS011;69435;52.670;13.544;2024-01-30T10:42:25;10.30;;;7.57;;
21334;SDS011;69435;52.670;13.544;2024-01-30T10:45:16;14.37;;;7.87;;
21334;SDS011;69435;52.670;13.544;2024-01-30T10:48:04;8.63;;;6.53;;
21334;SDS011;69435;52.670;13.544;2024-01-30T10:50:54;11.83;;;7.33;;
21334;SDS011;69435;52.670;13.544;2024-01-30T10:53:45;11.03;;;5.70;;
21334;SDS011;69435;52.670;13.544;2024-01-30T10:56:34;12.40;;;6.40;;
21334;SDS011;69435;52.670;13.544;2024-01-30T10:59:21;20.27;;;6.20;;
21334;SDS011;69435;52.670;13.544;2024-01-30T11:02:10;8.90;;;6.37;;
21334;SDS011;69435;52.670;13.544;2024-01-30T11:04:57;11.23;;;6.20;;
21334;SDS011;69435;52.670;13.544;2024-01-30T11:07:45;9.60;;;6.93;;
21334;SDS011;69435;52.670;13.544;2024-01-30T11:10:31;8.67;;;6.10;;
21334;SDS011;69435;52.670;13.544;2024-01-30T11:13:18;7.77;;;6.13;;
21334;SDS011;69435;52.670;13.544;2024-01-30T11:16:05;9.00;;;5.97;;
21334;SDS011;69435;52.670;13.544;2024-01-30T11:18:51;5.70;;;5.20;;
21334;SDS011;69435;52.670;13.544;2024-01-30T11:21:43;8.93;;;6.07;;
21334;SDS011;69435;52.670;13.544;2024-01-30T11:24:29;9.53;;;5.17;;
21334;SDS011;69435;52.670;13.544;2024-01-30T11:27:16;8.50;;;5.73;;
21334;SDS011;69435;52.670;13.544;2024-01-30T11:30:02;8.97;;;5.83;;
21334;SDS011;69435;52.670;13.544;2024-01-30T11:33:11;7.77;;;5.57;;
21334;SDS011;69435;52.670;13.544;2024-01-30T11:35:58;6.43;;;5.73;;
21334;SDS011;69435;52.670;13.544;2024-01-30T11:38:45;8.30;;;5.90;;
21334;SDS011;69435;52.670;13.544;2024-01-30T11:41:32;12.80;;;5.90;;
21334;SDS011;69435;52.670;13.544;2024-01-30T11:44:19;12.93;;;5.73;;
21334;SDS011;69435;52.670;13.544;2024-01-30T11:47:06;6.73;;;5.70;;
21334;SDS011;69435;52.670;13.544;2024-01-30T11:49:53;9.43;;;5.10;;
21334;SDS011;69435;52.670;13.544;2024-01-30T11:52:39;5.73;;;5.10;;
21334;SDS011;69435;52.670;13.544;2024-01-30T11:55:25;8.93;;;5.13;;
21334;SDS011;69435;52.670;13.544;2024-01-30T11:58:11;10.17;;;6.27;;
21334;SDS011;69435;52.670;13.544;2024-01-30T12:00:57;6.57;;;5.60;;
21334;SDS011;69435;52.670;13.544;2024-01-30T12:03:51;9.43;;;5.47;;
21334;SDS011;69435;52.670;13.544;2024-01-30T12:06:37;10.40;;;5.80;;
21334;SDS011;69435;52.670;13.544;2024-01-30T12:09:24;7.17;;;5.30;;
21334;SDS011;69435;52.670;13.544;2024-01-30T12:12:10;9.87;;;5.37;;
21334;SDS011;69435;52.670;13.544;2024-01-30T12:14:57;6.53;;;5.63;;
21334;SDS011;69435;52.670;13.544;2024-01-30T12:17:43;10.60;;;6.27;;
21334;SDS011;69435;52.670;13.544;2024-01-30T12:20:29;7.67;;;5.57;;
21334;SDS011;69435;52.670;13.544;2024-01-30T12:23:15;9.37;;;5.97;;
21334;SDS011;69435;52.670;13.544;2024-01-30T12:26:01;7.27;;;5.70;;
21334;SDS011;69435;52.670;13.544;2024-01-30T12:28:55;15.40;;;6.17;;
21334;SDS011;69435;52.670;13.544;2024-01-30T12:31:43;8.70;;;6.00;;
21334;SDS011;69435;52.670;13.544;2024-01-30T12:34:29;7.93;;;5.70;;
21334;SDS011;69435;52.670;13.544;2024-01-30T12:37:15;8.83;;;6.03;;
21334;SDS011;69435;52.670;13.544;2024-01-30T12:40:08;6.37;;;5.73;;
21334;SDS011;69435;52.670;13.544;2024-01-30T12:42:54;8.70;;;5.57;;
21334;SDS011;69435;52.670;13.544;2024-01-30T12:45:41;6.53;;;4.93;;
21334;SDS011;69435;52.670;13.544;2024-01-30T12:48:27;9.23;;;5.60;;
21334;SDS011;69435;52.670;13.544;2024-01-30T12:51:15;10.53;;;6.13;;
21334;SDS011;69435;52.670;13.544;2024-01-30T12:54:04;10.03;;;5.80;;
21334;SDS011;69435;52.670;13.544;2024-01-30T12:56:51;10.00;;;5.80;;
21334;SDS011;69435;52.670;13.544;2024-01-30T12:59:37;10.37;;;5.67;;
21334;SDS011;69435;52.670;13.544;2024-01-30T13:02:24;7.23;;;5.57;;
21334;SDS011;69435;52.670;13.544;2024-01-30T13:05:11;12.87;;;6.40;;
21334;SDS011;69435;52.670;13.544;2024-01-30T13:07:57;10.40;;;6.07;;
21334;SDS011;69435;52.670;13.544;2024-01-30T13:10:43;6.30;;;5.60;;
21334;SDS011;69435;52.670;13.544;2024-01-30T13:13:29;7.93;;;5.63;;
21334;SDS011;69435;52.670;13.544;2024-01-30T13:16:15;7.63;;;5.40;;
21334;SDS011;69435;52.670;13.544;2024-01-30T13:19:02;8.73;;;5.53;;
21334;SDS011;69435;52.670;13.544;2024-01-30T13:21:48;6.13;;;5.37;;
21334;SDS011;69435;52.670;13.544;2024-01-30T13:24:34;11.67;;;6.50;;
21334;SDS011;69435;52.670;13.544;2024-01-30T13:27:20;9.60;;;5.30;;
21334;SDS011;69435;52.670;13.544;2024-01-30T13:30:06;7.83;;;5.83;;
21334;SDS011;69435;52.670;13.544;2024-01-30T13:32:54;9.87;;;5.97;;
21334;SDS011;69435;52.670;13.544;2024-01-30T13:35:40;8.43;;;5.67;;
21334;SDS011;69435;52.670;13.544;2024-01-30T13:38:26;10.33;;;6.20;;
21334;SDS011;69435;52.670;13.544;2024-01-30T13:41:12;9.53;;;5.20;;
21334;SDS011;69435;52.670;13.544;2024-01-30T13:43:58;6.10;;;5.50;;
21334;SDS011;69435;52.670;13.544;2024-01-30T13:46:44;13.23;;;6.33;;
21334;SDS011;69435;52.670;13.544;2024-01-30T13:49:31;7.50;;;5.97;;
21334;SDS011;69435;52.670;13.544;2024-01-30T13:52:17;6.50;;;5.73;;
21334;SDS011;69435;52.670;13.544;2024-01-30T13:55:04;9.90;;;6.33;;
21334;SDS011;69435;52.670;13.544;2024-01-30T13:57:50;9.80;;;6.53;;
21334;SDS011;69435;52.670;13.544;2024-01-30T14:00:36;8.77;;;6.80;;
21334;SDS011;69435;52.670;13.544;2024-01-30T14:03:22;8.67;;;6.80;;
21334;SDS011;69435;52.670;13.544;2024-01-30T14:06:08;9.10;;;6.77;;
21334;SDS011;69435;52.670;13.544;2024-01-30T14:08:54;15.27;;;8.73;;
21334;SDS011;69435;52.670;13.544;2024-01-30T14:11:41;10.70;;;7.20;;
21334;SDS011;69435;52.670;13.544;2024-01-30T14:14:28;7.63;;;5.67;;
21334;SDS011;69435;52.670;13.544;2024-01-30T14:17:14;15.80;;;6.63;;
21334;SDS011;69435;52.670;13.544;2024-01-30T14:20:00;13.17;;;6.33;;
21334;SDS011;69435;52.670;13.544;2024-01-30T14:22:46;15.53;;;8.43;;
21334;SDS011;69435;52.670;13.544;2024-01-30T14:25:32;13.30;;;7.87;;
21334;SDS011;69435;52.670;13.544;2024-01-30T14:28:18;16.33;;;8.47;;
21334;SDS011;69435;52.670;13.544;2024-01-30T14:31:04;13.40;;;7.90;;
21334;SDS011;69435;52.670;13.544;2024-01-30T14:33:50;10.77;;;7.33;;
21334;SDS011;69435;52.670;13.544;2024-01-30T14:36:37;9.93;;;6.73;;
21334;SDS011;69435;52.670;13.544;2024-01-30T14:39:24;8.83;;;6.50;;
21334;SDS011;69435;52.670;13.544;2024-01-30T14:42:10;8.27;;;5.90;;
21334;SDS011;69435;52.670;13.544;2024-01-30T14:44:56;9.77;;;6.67;;
21334;SDS011;69435;52.670;13.544;2024-01-30T14:47:42;15.53;;;6.90;;
21334;SDS011;69435;52.670;13.544;2024-01-30T14:50:28;10.37;;;6.80;;
21334;SDS011;69435;52.670;13.544;2024-01-30T14:53:14;7.47;;;6.17;;
21334;SDS011;69435;52.670;13.544;2024-01-30T14:56:00;11.63;;;6.90;;
21334;SDS011;69435;52.670;13.544;2024-01-30T14:58:48;8.37;;;6.37;;
21334;SDS011;69435;52.670;13.544;2024-01-30T15:01:34;10.13;;;6.37;;
21334;SDS011;69435;52.670;13.544;2024-01-30T15:04:20;14.27;;;7.73;;
21334;SDS011;69435;52.670;13.544;2024-01-30T15:07:06;11.90;;;7.03;;
21334;SDS011;69435;52.670;13.544;2024-01-30T15:09:52;10.90;;;7.20;;
21334;SDS011;69435;52.670;13.544;2024-01-30T15:12:38;20.30;;;8.00;;
21334;SDS011;69435;52.670;13.544;2024-01-30T15:15:24;14.07;;;7.40;;
21334;SDS011;69435;52.670;13.544;2024-01-30T15:18:10;14.37;;;6.87;;
21334;SDS011;69435;52.670;13.544;2024-01-30T15:20:56;10.90;;;8.50;;
21334;SDS011;69435;52.670;13.544;2024-01-30T15:23:42;14.80;;;7.50;;
21334;SDS011;69435;52.670;13.544;2024-01-30T15:26:29;8.17;;;6.83;;
21334;SDS011;69435;52.670;13.544;2024-01-30T15:29:15;19.60;;;7.20;;
21334;SDS011;69435;52.670;13.544;2024-01-30T15:32:01;14.37;;;8.30;;
21334;SDS011;69435;52.670;13.544;2024-01-30T15:34:48;17.83;;;8.80;;
21334;SDS011;69435;52.670;13.544;2024-01-30T15:37:34;11.33;;;8.33;;
21334;SDS011;69435;52.670;13.544;2024-01-30T15:40:20;13.33;;;9.27;;
21334;SDS011;69435;52.670;13.544;2024-01-30T15:43:06;20.73;;;9.10;;
21334;SDS011;69435;52.670;13.544;2024-01-30T15:45:52;15.13;;;8.43;;
21334;SDS011;69435;52.670;13.544;2024-01-30T15:48:38;15.10;;;8.70;;
21334;SDS011;69435;52.670;13.544;2024-01-30T15:51:25;13.33;;;9.23;;
21334;SDS011;69435;52.670;13.544;2024-01-30T15:54:11;11.70;;;7.40;;
21334;SDS011;69435;52.670;13.544;2024-01-30T15:56:57;12.93;;;7.73;;
21334;SDS011;69435;52.670;13.544;2024-01-30T15:59:43;10.37;;;6.20;;
21334;SDS011;69435;52.670;13.544;2024-01-30T16:02:30;12.43;;;7.30;;
21334;SDS011;69435;52.670;13.544;2024-01-30T16:05:16;8.97;;;6.77;;
21334;SDS011;69435;52.670;13.544;2024-01-30T16:08:02;8.83;;;6.63;;
21334;SDS011;69435;52.670;13.544;2024-01-30T16:10:48;9.83;;;7.33;;
21334;SDS011;69435;52.670;13.544;2024-01-30T16:13:34;17.00;;;8.13;;
21334;SDS011;69435;52.670;13.544;2024-01-30T16:16:23;10.73;;;7.50;;
21334;SDS011;69435;52.670;13.544;2024-01-30T16:19:09;8.47;;;6.50;;
21334;SDS011;69435;52.670;13.544;2024-01-30T16:21:55;9.93;;;6.80;;